createdAt,value
2018-07-23T03:01:02.469Z,99.99
2018-07-23T03:02:03.332Z,99.99
2018-07-23T03:03:04.469Z,99.99
2018-07-23T03:04:14.047Z,99.99
2018-07-23T03:06:04.243Z,99.99
2018-07-23T03:09:06.569Z,99.99
2018-07-23T03:10:04.012Z,99.99
2018-07-23T03:11:04.546Z,99.99
2018-07-23T03:12:01.783Z,99.72
2018-07-23T03:13:01.842Z,99.24
2018-07-23T03:14:01.978Z,99.63
2018-07-23T03:15:02.290Z,99.34
2018-07-23T03:16:02.332Z,99.99
2018-07-23T03:17:02.452Z,99.99
2018-07-23T03:18:02.810Z,99.99
2018-07-23T03:19:02.842Z,99.99
2018-07-23T03:20:02.940Z,99.99
2018-07-23T03:21:03.250Z,99.99
2018-07-23T03:22:03.460Z,99.99
2018-07-23T03:23:03.498Z,99.99
2018-07-23T03:24:03.602Z,99.99
2018-07-23T03:25:03.844Z,99.99
2018-07-23T03:26:04.256Z,99.99
2018-07-23T03:27:04.128Z,99.99
2018-07-23T03:28:04.636Z,99.99
2018-07-23T03:29:04.703Z,99.99
2018-07-23T03:30:04.698Z,99.99
2018-07-23T03:31:05.190Z,99.99
2018-07-23T03:32:05.194Z,99.99
2018-07-23T03:33:05.341Z,99.99
2018-07-23T03:34:05.353Z,99.29
2018-07-23T03:35:05.471Z,99.77
2018-07-23T03:36:05.812Z,99.96
2018-07-23T03:37:05.961Z,99.99
2018-07-23T03:38:06.190Z,99.77
2018-07-23T03:39:06.306Z,99.99
2018-07-23T03:40:06.413Z,99.99
2018-07-23T03:41:06.726Z,99.99
2018-07-23T03:42:06.900Z,99.99
2018-07-23T03:43:07.046Z,99.99
2018-07-23T03:49:19.558Z,99.99
2018-07-23T03:50:19.897Z,99.99
2018-07-23T03:51:20.352Z,99.99
2018-07-23T03:52:20.421Z,99.99
2018-07-23T03:53:20.404Z,99.99
2018-07-23T03:54:20.777Z,99.99
2018-07-23T03:56:22.135Z,99.99
2018-07-23T03:57:21.966Z,99.99
2018-07-23T03:58:21.463Z,99.99
2018-07-23T03:59:21.726Z,99.77
2018-07-23T04:00:21.857Z,99.99
2018-07-23T04:01:22.311Z,99.99
2018-07-23T04:02:22.354Z,99.96
2018-07-23T04:03:22.348Z,99.38
2018-07-23T04:04:22.844Z,99.58
2018-07-23T04:05:20.348Z,99.99
2018-07-23T04:06:20.452Z,99.99
2018-07-23T04:07:20.607Z,99.87
2018-07-23T04:08:20.867Z,99.99
2018-07-23T04:09:21.006Z,99.99
2018-07-23T04:10:21.146Z,99.99
2018-07-23T04:11:21.258Z,99.99
2018-07-23T04:12:21.449Z,99.99
2018-07-23T04:13:21.777Z,99.99
2018-07-23T04:14:21.800Z,99.58
2018-07-23T04:15:22.294Z,99.67
2018-07-23T04:16:22.496Z,99.77
2018-07-23T04:17:22.428Z,99.58
2018-07-23T04:18:22.631Z,99.19
2018-07-23T04:19:22.885Z,99.38
2018-07-23T04:20:23.040Z,99.87
2018-07-23T04:21:23.105Z,99.77
2018-07-23T04:22:23.244Z,99.99
2018-07-23T04:23:23.420Z,99.99
2018-07-23T04:24:24.492Z,99.99
2018-07-23T04:25:24.192Z,99.96
2018-07-23T04:26:24.261Z,99.99
2018-07-23T04:27:26.280Z,99.99
2018-07-23T04:28:24.476Z,99.99
2018-07-23T04:29:24.848Z,99.99
2018-07-23T04:30:24.850Z,99.99
2018-07-23T04:31:24.737Z,99.99
2018-07-23T04:32:24.961Z,99.99
2018-07-23T04:33:26.199Z,99.99
2018-07-23T04:34:25.245Z,99.99
2018-07-23T04:35:25.329Z,99.99
2018-07-23T04:36:25.577Z,99.99
2018-07-23T04:37:25.723Z,99.99
2018-07-23T04:38:25.983Z,99.99
2018-07-23T04:39:26.103Z,99.99
2018-07-23T04:40:26.220Z,99.99
2018-07-23T04:41:28.417Z,99.99
2018-07-23T04:42:26.601Z,99.99
2018-07-23T04:43:26.740Z,99.99
2018-07-23T04:44:27.048Z,99.99
2018-07-23T04:45:27.122Z,99.99
2018-07-23T04:46:27.281Z,99.99
2018-07-23T04:47:27.417Z,99.99
2018-07-23T04:48:27.541Z,99.99
2018-07-23T04:49:27.812Z,99.99
2018-07-23T04:50:27.909Z,99.99
2018-07-23T04:51:28.414Z,99.99
2018-07-23T04:52:28.332Z,99.99
2018-07-23T04:53:28.751Z,99.99
2018-07-23T04:54:28.759Z,99.99
2018-07-23T04:55:28.765Z,99.99
2018-07-23T04:56:29.827Z,99.99
2018-07-23T04:57:29.151Z,99.99
2018-07-23T04:58:29.305Z,99.99
2018-07-23T04:59:29.517Z,99.82
2018-07-23T05:00:30.202Z,99.99
2018-07-23T05:01:29.883Z,99.72
2018-07-23T05:02:30.008Z,99.99
2018-07-23T05:03:30.033Z,99.99
2018-07-23T05:04:30.415Z,99.99
2018-07-23T05:05:30.534Z,99.99
2018-07-23T05:06:30.631Z,99.99
2018-07-23T05:07:30.910Z,99.99
2018-07-23T05:08:31.092Z,99.99
2018-07-23T05:09:32.937Z,99.99
2018-07-23T05:10:33.951Z,99.99
2018-07-23T05:11:32.209Z,99.99
2018-07-23T05:12:31.932Z,99.99
2018-07-23T05:13:47.576Z,99.99
2018-07-23T05:14:32.167Z,99.99
2018-07-23T05:15:32.213Z,99.96
2018-07-23T05:20:02.126Z,99.77
2018-07-23T05:20:54.995Z,99.96
2018-07-23T05:21:54.088Z,98.86
2018-07-23T05:22:53.907Z,99.05
2018-07-23T05:23:53.961Z,99.15
2018-07-23T05:24:54.742Z,98.77
2018-07-23T05:25:54.340Z,98.28
2018-07-23T05:27:06.912Z,98.10
2018-07-23T05:28:55.590Z,98.10
2018-07-23T05:30:59.717Z,97.95
2018-07-23T05:31:55.738Z,98.00
2018-07-23T05:32:57.012Z,97.38
2018-07-23T05:33:56.848Z,97.47
2018-07-23T05:34:54.057Z,96.80
2018-07-23T05:35:54.838Z,96.80
2018-07-23T05:36:54.093Z,97.66
2018-07-23T05:38:09.005Z,96.89
2018-07-23T05:38:55.141Z,97.09
2018-07-23T05:39:57.334Z,96.51
2018-07-23T05:41:06.823Z,96.70
2018-07-23T05:41:57.328Z,96.66
2018-07-23T05:42:57.868Z,97.14
2018-07-23T05:43:59.462Z,96.66
2018-07-23T05:44:59.345Z,96.56
2018-07-23T05:51:33.446Z,95.79
2018-07-23T05:52:33.994Z,95.45
2018-07-23T05:55:55.744Z,95.36
2018-07-23T05:59:20.101Z,94.88
2018-07-23T06:00:47.196Z,94.35
2018-07-23T06:02:51.658Z,94.54
2018-07-23T06:03:49.884Z,93.29
2018-07-23T06:04:50.056Z,92.72
2018-07-23T06:05:50.129Z,93.29
2018-07-23T06:06:50.202Z,92.62
2018-07-23T06:07:50.436Z,92.76
2018-07-23T06:08:50.565Z,92.76
2018-07-23T06:09:50.773Z,92.47
2018-07-23T06:10:50.882Z,92.38
2018-07-23T06:11:51.089Z,91.71
2018-07-23T06:12:51.225Z,91.52
2018-07-23T06:13:51.446Z,91.90
2018-07-23T06:14:51.525Z,91.61
2018-07-23T06:15:51.721Z,91.42
2018-07-23T06:16:51.892Z,91.46
2018-07-23T06:17:52.080Z,91.46
2018-07-23T06:18:52.268Z,91.36
2018-07-23T06:19:52.468Z,91.36
2018-07-23T06:20:52.611Z,90.89
2018-07-23T06:21:52.844Z,90.98
2018-07-23T06:22:52.883Z,90.89
2018-07-23T06:23:53.053Z,91.27
2018-07-23T06:24:53.309Z,90.41
2018-07-23T06:25:53.436Z,90.26
2018-07-23T06:26:53.668Z,89.97
2018-07-23T06:27:53.880Z,89.97
2018-07-23T06:28:53.996Z,89.58
2018-07-23T06:29:54.200Z,89.20
2018-07-23T06:30:54.333Z,88.62
2018-07-23T06:31:54.454Z,88.14
2018-07-23T06:32:54.687Z,87.51
2018-07-23T06:33:54.896Z,86.83
2018-07-23T06:34:54.970Z,86.45
2018-07-23T06:35:55.082Z,86.16
2018-07-23T06:36:55.342Z,86.49
2018-07-23T06:37:55.434Z,85.82
2018-07-23T06:38:55.611Z,85.34
2018-07-23T06:39:55.819Z,85.53
2018-07-23T06:40:55.899Z,85.14
2018-07-23T06:41:56.147Z,85.47
2018-07-23T06:42:56.329Z,85.47
2018-07-23T06:43:56.418Z,85.19
2018-07-23T06:44:56.661Z,85.09
2018-07-23T06:45:56.758Z,84.80
2018-07-23T06:46:56.945Z,84.99
2018-07-23T06:47:58.061Z,85.09
2018-07-23T06:48:57.374Z,84.46
2018-07-23T06:49:57.439Z,83.98
2018-07-23T06:50:57.693Z,84.07
2018-07-23T06:51:57.906Z,84.17
2018-07-23T06:52:57.990Z,84.36
2018-07-23T06:53:58.302Z,83.98
2018-07-23T06:54:58.379Z,84.36
2018-07-23T06:55:58.495Z,84.01
2018-07-23T06:56:58.644Z,84.01
2018-07-23T06:57:58.875Z,83.53
2018-07-23T06:58:59.000Z,83.83
2018-07-23T06:59:59.253Z,83.92
2018-07-23T07:00:59.403Z,83.29
2018-07-23T07:01:59.449Z,83.25
2018-07-23T07:02:59.679Z,83.15
2018-07-23T07:03:59.855Z,84.31
2018-07-23T07:05:00.001Z,83.19
2018-07-23T07:06:00.183Z,83.48
2018-07-23T07:07:00.406Z,82.81
2018-07-23T07:08:00.553Z,83.39
2018-07-23T07:09:00.774Z,82.61
2018-07-23T07:10:00.939Z,82.17
2018-07-23T07:11:01.092Z,81.59
2018-07-23T07:12:01.199Z,81.01
2018-07-23T07:13:01.432Z,81.11
2018-07-23T07:14:01.590Z,81.20
2018-07-23T07:15:01.780Z,80.91
2018-07-23T07:16:02.066Z,80.91
2018-07-23T07:17:02.156Z,81.30
2018-07-23T07:18:02.310Z,80.95
2018-07-23T07:19:02.518Z,80.38
2018-07-23T07:20:02.709Z,80.38
2018-07-23T07:21:02.780Z,80.18
2018-07-23T07:22:02.978Z,80.08
2018-07-23T07:23:03.194Z,81.15
2018-07-23T07:24:03.467Z,80.95
2018-07-23T07:25:03.560Z,80.76
2018-07-23T07:26:03.768Z,79.80
2018-07-23T07:27:03.861Z,79.83
2018-07-23T07:28:04.017Z,80.03
2018-07-23T07:29:04.209Z,79.06
2018-07-23T07:30:04.390Z,79.12
2018-07-23T07:31:04.571Z,79.16
2018-07-23T07:32:04.770Z,80.12
2018-07-23T07:33:04.986Z,80.22
2018-07-23T07:34:05.052Z,80.12
2018-07-23T07:35:05.254Z,79.74
2018-07-23T07:36:05.492Z,79.00
2018-07-23T07:37:05.668Z,77.94
2018-07-23T07:38:05.960Z,78.52
2018-07-23T07:39:05.876Z,78.81
2018-07-23T07:40:06.124Z,78.08
2018-07-23T07:41:06.179Z,78.46
2018-07-23T07:42:06.331Z,77.98
2018-07-23T07:43:06.517Z,77.30
2018-07-23T07:44:06.724Z,76.28
2018-07-23T07:45:06.861Z,76.18
2018-07-23T07:46:07.150Z,75.31
2018-07-23T07:47:07.205Z,76.18
2018-07-23T07:48:07.430Z,75.60
2018-07-23T07:49:07.585Z,74.15
2018-07-23T07:50:07.708Z,73.99
2018-07-23T07:51:07.955Z,74.38
2018-07-23T07:52:08.035Z,74.66
2018-07-23T07:53:08.268Z,73.83
2018-07-23T07:54:08.363Z,73.73
2018-07-23T07:55:08.525Z,72.24
2018-07-23T07:56:08.748Z,72.53
2018-07-23T07:57:08.897Z,73.60
2018-07-23T07:58:09.034Z,72.34
2018-07-23T07:59:09.271Z,72.38
2018-07-23T08:00:09.348Z,72.28
2018-07-23T08:01:09.475Z,72.96
2018-07-23T08:02:09.851Z,72.09
2018-07-23T08:03:09.990Z,72.28
2018-07-23T08:04:10.075Z,72.47
2018-07-23T08:05:10.325Z,72.51
2018-07-23T08:06:10.384Z,70.57
2018-07-23T08:07:10.602Z,72.02
2018-07-23T08:08:10.711Z,71.44
2018-07-23T08:09:10.915Z,69.99
2018-07-23T08:10:11.111Z,70.47
2018-07-23T08:11:11.265Z,71.86
2018-07-23T08:12:11.565Z,69.54
2018-07-23T08:13:11.687Z,68.28
2018-07-23T08:14:11.812Z,68.31
2018-07-23T08:15:12.639Z,67.54
2018-07-23T08:16:12.118Z,67.76
2018-07-23T08:17:12.320Z,67.15
2018-07-23T08:18:12.512Z,65.79
2018-07-23T08:19:12.643Z,64.26
2018-07-23T08:20:12.857Z,62.90
2018-07-23T08:21:13.099Z,62.74
2018-07-23T08:22:13.241Z,62.19
2018-07-23T08:23:13.393Z,60.75
2018-07-23T08:24:13.490Z,60.00
2018-07-23T08:25:13.707Z,59.55
2018-07-23T08:26:13.920Z,60.03
2018-07-23T08:27:14.165Z,58.99
2018-07-23T08:28:15.082Z,57.36
2018-07-23T08:29:14.320Z,56.68
2018-07-23T08:30:14.570Z,56.02
2018-07-23T08:31:14.796Z,54.56
2018-07-23T08:32:15.015Z,55.05
2018-07-23T08:33:15.061Z,55.05
2018-07-23T08:34:15.174Z,54.44
2018-07-23T08:35:15.504Z,54.56
2018-07-23T08:36:15.655Z,54.49
2018-07-23T08:37:15.880Z,53.71
2018-07-23T08:38:16.137Z,53.34
2018-07-23T08:39:16.251Z,52.86
2018-07-23T08:40:16.449Z,49.33
2018-07-23T08:41:16.564Z,50.32
2018-07-23T08:42:16.775Z,50.71
2018-07-23T08:43:16.992Z,50.51
2018-07-23T08:44:17.115Z,50.05
2018-07-23T08:45:17.333Z,48.60
2018-07-23T08:46:17.496Z,47.11
2018-07-23T08:47:17.699Z,47.60
2018-07-23T08:48:17.868Z,48.70
2018-07-23T08:49:17.993Z,49.65
2018-07-23T08:50:18.275Z,49.55
2018-07-23T08:51:18.328Z,49.77
2018-07-23T08:52:18.591Z,49.38
2018-07-23T08:53:18.729Z,49.38
2018-07-23T08:54:18.901Z,49.38
2018-07-23T08:55:19.188Z,49.38
2018-07-23T08:56:19.306Z,50.46
2018-07-23T08:57:19.499Z,49.46
2018-07-23T08:58:19.650Z,50.59
2018-07-23T08:59:19.752Z,51.17
2018-07-23T09:00:20.056Z,50.88
2018-07-23T09:01:20.221Z,50.88
2018-07-23T09:02:20.348Z,51.66
2018-07-23T09:03:20.423Z,52.05
2018-07-23T09:04:20.600Z,52.51
2018-07-23T09:05:20.930Z,53.29
2018-07-23T09:06:21.038Z,52.61
2018-07-23T09:07:21.168Z,51.90
2018-07-23T09:08:21.318Z,52.00
2018-07-23T09:09:21.506Z,51.78
2018-07-23T09:10:21.748Z,52.56
2018-07-23T09:11:21.830Z,53.05
2018-07-23T09:12:22.116Z,54.02
2018-07-23T09:13:22.238Z,52.95
2018-07-23T09:14:22.622Z,52.87
2018-07-23T09:15:22.565Z,51.82
2018-07-23T09:16:22.753Z,50.85
2018-07-23T09:17:23.020Z,51.07
2018-07-23T09:18:23.115Z,50.88
2018-07-23T09:19:23.485Z,50.10
2018-07-23T09:20:23.601Z,50.49
2018-07-23T09:21:23.734Z,50.49
2018-07-23T09:22:23.987Z,50.39
2018-07-23T09:23:24.181Z,50.39
2018-07-23T09:24:24.408Z,50.65
2018-07-23T09:25:24.507Z,50.85
2018-07-23T09:26:24.876Z,50.73
2018-07-23T09:27:24.853Z,50.04
2018-07-23T09:28:25.039Z,50.99
2018-07-23T09:29:25.296Z,50.92
2018-07-23T09:30:25.397Z,49.54
2018-07-23T09:31:25.738Z,50.12
2018-07-23T09:32:25.812Z,51.97
2018-07-23T09:33:26.067Z,51.68
2018-07-23T09:34:26.292Z,50.70
2018-07-23T09:35:26.419Z,51.51
2018-07-23T09:36:26.735Z,50.07
2018-07-23T09:37:26.801Z,50.04
2018-07-23T09:38:26.947Z,48.56
2018-07-23T09:39:27.228Z,50.14
2018-07-23T09:40:27.488Z,49.76
2018-07-23T09:41:27.748Z,49.37
2018-07-23T09:42:27.864Z,48.49
2018-07-23T09:43:28.036Z,50.24
2018-07-23T09:44:28.152Z,50.24
2018-07-23T09:45:28.182Z,48.58
2018-07-23T09:46:28.335Z,49.85
2018-07-23T09:47:28.743Z,50.80
2018-07-23T09:48:28.796Z,50.99
2018-07-23T09:49:28.859Z,50.80
2018-07-23T09:50:29.198Z,50.02
2018-07-23T09:51:29.151Z,47.66
2018-07-23T09:52:29.630Z,48.07
2018-07-23T09:53:29.757Z,47.61
2018-07-23T09:54:29.994Z,46.24
2018-07-23T09:55:30.061Z,46.14
2018-07-23T09:56:30.268Z,47.05
2018-07-23T09:57:30.388Z,45.61
2018-07-23T09:58:30.763Z,45.14
2018-07-23T09:59:31.140Z,43.16
2018-07-23T10:00:30.933Z,43.95
2018-07-23T10:01:31.259Z,46.19
2018-07-23T10:02:31.359Z,45.78
2018-07-23T10:03:31.610Z,45.04
2018-07-23T10:04:31.726Z,44.30
2018-07-23T10:05:31.805Z,42.81
2018-07-23T10:06:32.096Z,40.74
2018-07-23T10:07:32.226Z,40.48
2018-07-23T10:08:32.577Z,40.48
2018-07-23T10:09:32.757Z,41.44
2018-07-23T10:10:32.886Z,42.03
2018-07-23T10:11:33.251Z,39.88
2018-07-23T10:12:33.402Z,38.34
2018-07-23T10:13:35.779Z,37.37
2018-07-23T10:15:39.054Z,38.61
2018-07-23T10:16:39.681Z,39.04
2018-07-23T10:17:40.988Z,37.85
2018-07-23T10:18:40.030Z,38.26
2018-07-23T10:19:40.461Z,37.12
2018-07-23T10:20:40.624Z,37.35
2018-07-23T10:21:37.555Z,36.27
2018-07-23T10:22:37.029Z,35.27
2018-07-23T10:23:37.333Z,36.53
2018-07-23T10:24:37.464Z,37.18
2018-07-23T10:25:37.653Z,37.47
2018-07-23T10:26:37.970Z,37.35
2018-07-23T10:27:38.059Z,37.63
2018-07-23T10:28:38.278Z,37.62
2018-07-23T10:29:38.444Z,37.79
2018-07-23T10:30:38.718Z,38.45
2018-07-23T10:31:38.780Z,38.75
2018-07-23T10:32:38.955Z,39.80
2018-07-23T10:33:39.289Z,39.70
2018-07-23T10:34:39.326Z,39.90
2018-07-23T10:35:39.501Z,40.48
2018-07-23T10:36:39.566Z,40.23
2018-07-23T10:37:39.813Z,40.19
2018-07-23T10:38:39.879Z,37.02
2018-07-23T10:39:40.352Z,36.27
2018-07-23T10:40:40.172Z,35.42
2018-07-23T10:41:41.074Z,34.28
2018-07-23T10:42:40.453Z,33.80
2018-07-23T10:43:40.932Z,33.53
2018-07-23T10:44:41.150Z,32.76
2018-07-23T10:45:41.220Z,30.79
2018-07-23T10:46:41.358Z,30.51
2018-07-23T10:47:41.591Z,31.36
2018-07-23T10:48:41.559Z,32.23
2018-07-23T10:49:42.024Z,32.23
2018-07-23T10:50:41.932Z,31.84
2018-07-23T10:51:42.367Z,32.45
2018-07-23T10:52:42.451Z,31.48
2018-07-23T10:53:42.627Z,31.10
2018-07-23T10:54:42.730Z,32.39
2018-07-23T10:55:43.199Z,32.69
2018-07-23T10:56:43.066Z,30.94
2018-07-23T10:57:43.588Z,30.26
2018-07-23T10:58:43.762Z,31.07
2018-07-23T10:59:43.597Z,30.19
2018-07-23T11:00:43.689Z,29.30
2018-07-23T11:01:44.058Z,28.62
2018-07-23T11:02:44.321Z,29.51
2018-07-23T11:03:44.573Z,28.65
2018-07-23T11:04:45.053Z,27.66
2018-07-23T11:05:45.854Z,26.56
2018-07-23T11:06:45.589Z,27.73
2018-07-23T11:07:45.300Z,26.54
2018-07-23T11:08:45.609Z,27.44
2018-07-23T11:09:45.446Z,26.83
2018-07-23T11:10:45.818Z,26.26
2018-07-23T11:11:46.154Z,26.87
2018-07-23T11:12:47.581Z,26.57
2018-07-23T11:13:46.430Z,26.56
2018-07-23T11:14:47.416Z,26.56
2018-07-23T11:15:46.380Z,26.36
2018-07-23T11:16:48.200Z,26.67
2018-07-23T11:17:47.570Z,26.67
2018-07-23T11:18:47.573Z,26.97
2018-07-23T11:19:47.352Z,25.31
2018-07-23T11:20:47.462Z,25.99
2018-07-23T11:21:47.632Z,26.19
2018-07-23T11:22:48.310Z,26.19
2018-07-23T11:23:49.612Z,25.90
2018-07-23T11:24:51.044Z,25.29
2018-07-23T11:25:48.704Z,24.51
2018-07-23T11:26:48.802Z,24.03
2018-07-23T11:27:49.129Z,23.15
2018-07-23T11:28:49.212Z,22.18
2018-07-23T11:29:49.792Z,23.16
2018-07-23T11:30:50.509Z,24.25
2018-07-23T11:31:50.067Z,22.67
2018-07-23T11:32:49.847Z,22.94
2018-07-23T11:33:52.633Z,24.04
2018-07-23T11:34:50.860Z,23.04
2018-07-23T11:35:50.609Z,24.22
2018-07-23T11:36:50.870Z,23.24
2018-07-23T11:37:52.235Z,22.75
2018-07-23T11:38:51.243Z,23.16
2018-07-23T11:39:51.376Z,23.06
2018-07-23T11:40:51.397Z,23.15
2018-07-23T11:41:51.493Z,23.44
2018-07-23T11:45:10.244Z,22.92
2018-07-23T14:21:03.759Z,25.82
2018-07-23T16:13:51.975Z,32.17
2018-07-23T16:16:12.865Z,31.39
2018-07-23T16:18:11.706Z,31.28
2018-07-23T16:19:13.836Z,31.56
2018-07-23T16:20:15.867Z,32.24
2018-07-23T16:21:11.577Z,31.95
2018-07-23T16:22:10.988Z,31.95
2018-07-23T16:23:09.543Z,32.04
2018-07-23T16:24:08.621Z,32.24
2018-07-23T16:25:08.637Z,32.63
2018-07-23T16:26:09.286Z,32.63
2018-07-23T16:29:02.891Z,33.90
2018-07-23T16:31:08.421Z,32.14
2018-07-23T16:32:00.801Z,32.65
2018-07-23T16:33:04.933Z,32.07
2018-07-23T16:33:55.037Z,30.61
2018-07-23T16:34:53.157Z,30.44
2018-07-23T16:35:53.262Z,31.23
2018-07-23T16:36:53.087Z,29.48
2018-07-23T16:37:52.961Z,29.20
2018-07-23T16:38:53.227Z,28.31
2018-07-23T16:39:53.369Z,27.44
2018-07-23T16:40:53.575Z,28.13
2018-07-23T16:41:53.741Z,28.82
2018-07-23T16:42:53.935Z,27.84
2018-07-23T16:43:54.152Z,28.34
2018-07-23T16:44:54.443Z,27.56
2018-07-23T16:45:54.536Z,27.66
2018-07-23T16:46:54.631Z,27.45
2018-07-23T16:47:54.776Z,28.33
2018-07-23T16:48:54.960Z,27.63
2018-07-23T16:49:55.156Z,28.50
2018-07-23T16:50:55.396Z,28.88
2018-07-23T16:51:55.615Z,29.07
2018-07-23T16:52:55.691Z,29.94
2018-07-23T16:53:55.937Z,29.94
2018-07-23T16:54:56.157Z,30.25
2018-07-23T16:55:56.364Z,30.04
2018-07-23T16:56:56.573Z,29.45
2018-07-23T16:57:56.677Z,29.84
2018-07-23T16:58:56.889Z,30.02
2018-07-23T16:59:57.128Z,30.22
2018-07-23T17:00:57.245Z,30.32
2018-07-23T17:01:57.416Z,30.71
2018-07-23T17:02:57.563Z,29.53
2018-07-23T17:03:57.661Z,29.83
2018-07-23T17:04:57.938Z,30.12
2018-07-23T17:05:58.201Z,30.12
2018-07-23T17:06:58.339Z,30.02
2018-07-23T17:07:58.479Z,29.53
2018-07-23T17:08:58.632Z,29.83
2018-07-23T17:09:58.894Z,29.93
2018-07-23T17:10:59.082Z,29.83
2018-07-23T17:11:59.158Z,29.63
2018-07-23T17:12:59.445Z,29.04
2018-07-23T17:13:59.499Z,29.53
2018-07-23T17:14:59.708Z,29.03
2018-07-23T17:15:59.823Z,29.52
2018-07-23T17:16:59.999Z,30.10
2018-07-23T17:18:00.295Z,29.91
2018-07-23T17:19:00.415Z,30.79
2018-07-23T17:20:00.594Z,30.79
2018-07-23T17:21:00.705Z,30.59
2018-07-23T17:22:00.891Z,30.09
2018-07-23T17:23:01.227Z,29.90
2018-07-23T17:24:01.238Z,30.29
2018-07-23T17:25:01.491Z,29.41
2018-07-23T17:26:01.788Z,30.29
2018-07-23T17:27:01.937Z,30.48
2018-07-23T17:28:02.047Z,30.58
2018-07-23T17:29:02.253Z,29.00
2018-07-23T17:30:02.348Z,29.98
2018-07-23T17:31:02.564Z,30.57
2018-07-23T17:32:02.795Z,29.88
2018-07-23T17:33:03.042Z,29.69
2018-07-23T17:34:03.124Z,29.57
2018-07-23T17:35:03.383Z,30.35
2018-07-23T17:36:03.547Z,30.06
2018-07-23T17:37:03.677Z,29.96
2018-07-23T17:38:03.899Z,30.16
2018-07-23T17:39:04.074Z,30.84
2018-07-23T17:40:16.218Z,30.55
2018-07-23T17:41:15.476Z,30.55
2018-07-23T17:42:09.478Z,30.26
2018-07-23T17:43:13.444Z,30.45
2018-07-23T17:44:12.728Z,30.55
2018-07-23T17:45:08.472Z,30.35
2018-07-23T17:46:08.722Z,30.74
2018-07-23T17:47:10.538Z,30.55
2018-07-23T17:49:06.024Z,30.83
2018-07-23T17:50:06.237Z,30.54
2018-07-23T17:51:06.244Z,30.54
2018-07-23T17:52:06.517Z,30.54
2018-07-23T17:53:06.756Z,31.12
2018-07-23T17:54:06.923Z,31.01
2018-07-23T17:55:07.012Z,31.60
2018-07-23T17:56:07.303Z,31.99
2018-07-23T17:57:07.390Z,30.71
2018-07-23T17:58:07.570Z,31.10
2018-07-23T17:59:07.684Z,31.49
2018-07-23T18:00:07.933Z,31.40
2018-07-23T18:01:08.217Z,31.40
2018-07-23T18:02:08.493Z,31.88
2018-07-23T18:03:08.536Z,32.18
2018-07-23T18:04:08.751Z,31.98
2018-07-23T18:05:08.884Z,31.77
2018-07-23T18:06:09.109Z,32.26
2018-07-23T18:07:09.316Z,32.35
2018-07-23T18:08:09.457Z,32.35
2018-07-23T18:09:09.654Z,32.35
2018-07-23T18:10:09.891Z,32.26
2018-07-23T18:11:09.951Z,31.77
2018-07-23T18:12:10.036Z,32.55
2018-07-23T18:13:10.301Z,32.35
2018-07-23T18:14:10.479Z,32.26
2018-07-23T18:15:10.718Z,32.82
2018-07-23T18:16:10.764Z,32.43
2018-07-23T18:17:10.846Z,32.53
2018-07-23T18:18:11.079Z,32.34
2018-07-23T18:19:11.440Z,31.95
2018-07-23T18:20:11.474Z,31.76
2018-07-23T18:21:11.757Z,32.15
2018-07-23T18:22:11.891Z,31.46
2018-07-23T18:23:11.993Z,31.95
2018-07-23T18:24:12.230Z,31.95
2018-07-23T18:25:12.463Z,31.85
2018-07-23T18:26:12.940Z,32.34
2018-07-23T18:27:13.015Z,33.01
2018-07-23T18:28:12.994Z,32.13
2018-07-23T18:29:13.166Z,32.42
2018-07-23T18:30:13.308Z,33.29
2018-07-23T18:31:13.592Z,33.20
2018-07-23T18:32:13.939Z,33.39
2018-07-23T18:33:13.928Z,33.59
2018-07-23T18:34:14.187Z,33.39
2018-07-23T18:35:14.228Z,33.88
2018-07-23T18:36:14.565Z,33.98
2018-07-23T18:37:14.804Z,33.96
2018-07-23T18:38:15.691Z,34.64
2018-07-23T18:39:14.993Z,35.23
2018-07-23T18:40:15.168Z,35.71
2018-07-23T18:41:15.355Z,35.33
2018-07-23T18:42:15.464Z,35.33
2018-07-23T18:43:15.748Z,36.08
2018-07-23T18:44:15.969Z,35.41
2018-07-23T18:45:15.954Z,34.33
2018-07-23T18:46:16.192Z,33.95
2018-07-23T18:47:16.319Z,35.31
2018-07-23T18:48:16.551Z,35.99
2018-07-23T18:49:16.700Z,35.29
2018-07-23T18:50:16.838Z,36.46
2018-07-23T18:51:17.012Z,36.65
2018-07-23T18:52:17.176Z,37.24
2018-07-23T18:53:17.263Z,37.24
2018-07-23T18:54:17.507Z,37.12
2018-07-23T18:55:17.850Z,37.32
2018-07-23T18:56:17.979Z,38.67
2018-07-23T18:57:18.175Z,38.48
2018-07-23T18:58:18.281Z,38.19
2018-07-23T18:59:18.532Z,38.48
2018-07-23T19:00:18.721Z,38.65
2018-07-23T19:01:18.804Z,39.43
2018-07-23T19:02:18.977Z,39.34
2018-07-23T19:03:19.040Z,39.92
2018-07-23T19:04:19.427Z,39.82
2018-07-23T19:05:19.797Z,40.41
2018-07-23T19:06:19.677Z,40.87
2018-07-23T19:07:19.930Z,41.26
2018-07-23T19:08:20.184Z,41.64
2018-07-23T19:09:20.284Z,42.61
2018-07-23T19:10:20.445Z,42.40
2018-07-23T19:11:20.606Z,42.21
2018-07-23T19:12:20.711Z,42.60
2018-07-23T19:13:20.960Z,42.21
2018-07-23T19:14:21.215Z,43.06
2018-07-23T19:15:21.340Z,42.67
2018-07-23T19:16:21.592Z,42.57
2018-07-23T19:17:21.640Z,43.45
2018-07-23T19:18:21.831Z,43.54
2018-07-23T19:19:22.102Z,43.82
2018-07-23T19:20:22.347Z,43.62
2018-07-23T19:21:22.379Z,43.62
2018-07-23T19:22:22.863Z,43.62
2018-07-23T19:23:23.347Z,44.78
2018-07-23T19:26:51.984Z,44.57
2018-07-23T19:27:49.651Z,45.05
2018-07-23T19:28:48.760Z,45.25
2018-07-23T19:29:50.929Z,45.32
2018-07-23T19:30:49.111Z,45.61
2018-07-23T19:31:49.683Z,45.32
2018-07-23T19:32:50.597Z,45.42
2018-07-23T19:34:47.006Z,44.93
2018-07-23T19:35:46.316Z,45.32
2018-07-23T19:36:46.347Z,46.00
2018-07-23T19:37:46.476Z,45.61
2018-07-23T19:38:47.228Z,45.98
2018-07-23T19:39:46.702Z,45.68
2018-07-23T19:40:46.867Z,46.46
2018-07-23T19:41:47.146Z,46.36
2018-07-23T19:42:47.734Z,46.36
2018-07-23T19:43:47.733Z,47.41
2018-07-23T19:44:48.081Z,47.41
2018-07-23T19:45:47.570Z,46.73
2018-07-23T19:46:48.112Z,45.95
2018-07-23T19:47:49.052Z,46.25
2018-07-23T19:48:48.631Z,46.53
2018-07-23T19:49:48.540Z,47.50
2018-07-23T19:50:49.439Z,47.11
2018-07-23T19:51:49.338Z,47.31
2018-07-23T19:52:48.976Z,47.38
2018-07-23T19:53:49.667Z,47.86
2018-07-23T19:56:41.156Z,48.83
2018-07-23T19:57:47.997Z,49.22
2018-07-23T19:58:37.609Z,49.60
2018-07-23T19:59:45.024Z,49.80
2018-07-23T20:01:40.704Z,50.07
2018-07-23T20:02:38.241Z,49.87
2018-07-23T20:04:36.384Z,49.68
2018-07-23T20:05:36.265Z,50.16
2018-07-23T20:06:36.469Z,49.97
2018-07-23T20:07:36.787Z,50.26
2018-07-23T20:08:36.960Z,50.13
2018-07-23T20:09:37.099Z,50.71
2018-07-23T20:10:37.409Z,50.55
2018-07-23T20:11:37.753Z,50.62
2018-07-23T20:12:38.286Z,50.62
2018-07-23T20:13:47.152Z,50.43
2018-07-23T20:14:42.914Z,51.01
2018-07-23T20:15:43.248Z,51.59
2018-07-23T20:16:45.237Z,52.23
2018-07-23T20:17:40.643Z,52.33
2018-07-23T20:19:41.169Z,53.59
2018-07-23T20:20:39.529Z,53.78
2018-07-23T20:21:39.604Z,54.07
2018-07-23T20:22:39.970Z,54.33
2018-07-23T20:23:40.263Z,54.62
2018-07-23T20:24:40.055Z,54.91
2018-07-23T20:25:40.169Z,55.88
2018-07-23T20:26:40.393Z,55.98
2018-07-23T20:27:40.827Z,56.16
2018-07-23T20:28:40.662Z,55.40
2018-07-23T20:29:41.065Z,56.16
2018-07-23T20:30:41.295Z,56.26
2018-07-23T20:31:41.343Z,55.10
2018-07-23T20:32:41.883Z,55.20
2018-07-23T20:33:41.967Z,55.66
2018-07-23T20:34:42.120Z,55.18
2018-07-23T20:35:42.312Z,55.36
2018-07-23T20:36:42.475Z,55.56
2018-07-23T20:37:42.310Z,56.33
2018-07-23T20:38:43.383Z,56.43
2018-07-23T20:39:42.743Z,56.52
2018-07-23T20:40:43.047Z,57.01
2018-07-23T20:41:43.222Z,57.07
2018-07-23T20:42:43.334Z,57.17
2018-07-23T20:43:43.646Z,57.17
2018-07-23T20:44:43.683Z,58.14
2018-07-23T20:46:44.092Z,57.94
2018-07-23T20:47:45.123Z,57.94
2018-07-23T20:48:44.448Z,58.33
2018-07-23T20:49:44.672Z,58.52
2018-07-23T20:50:45.262Z,58.81
2018-07-23T20:51:45.160Z,58.78
2018-07-23T20:52:45.334Z,59.36
2018-07-23T20:53:45.432Z,59.27
2018-07-23T20:54:45.668Z,59.65
2018-07-23T20:55:45.605Z,59.65
2018-07-23T20:56:45.866Z,59.07
2018-07-23T20:57:46.888Z,59.84
2018-07-23T20:58:46.882Z,59.75
2018-07-23T20:59:46.531Z,59.75
2018-07-23T21:00:46.909Z,59.62
2018-07-23T21:01:46.922Z,59.91
2018-07-23T21:02:47.026Z,60.00
2018-07-23T21:03:46.989Z,60.39
2018-07-23T21:04:47.399Z,60.49
2018-07-23T21:05:47.412Z,60.58
2018-07-23T21:06:47.458Z,60.58